createdAt,value
2022-11-10T00:00:25.834Z,7.65
2022-11-10T00:03:53.154Z,7.69
2022-11-10T00:07:14.409Z,7.71
2022-11-10T00:10:57.209Z,7.71
2022-11-10T00:14:36.726Z,7.70
2022-11-10T00:17:58.175Z,7.70
2022-11-10T00:21:20.533Z,7.64
2022-11-10T00:24:42.315Z,7.68
2022-11-10T00:28:03.081Z,7.68
2022-11-10T00:31:24.979Z,7.69
2022-11-10T00:34:46.126Z,7.76
2022-11-10T00:38:08.014Z,7.74
2022-11-10T00:41:29.036Z,7.77
2022-11-10T00:44:50.455Z,7.73
2022-11-10T00:48:11.740Z,7.72
2022-11-10T00:51:33.493Z,7.72
2022-11-10T00:54:54.864Z,7.73
2022-11-10T00:58:16.334Z,7.68
2022-11-10T01:01:37.752Z,7.73
2022-11-10T01:04:59.636Z,7.66
2022-11-10T01:08:21.041Z,7.65
2022-11-10T01:11:42.614Z,7.68
2022-11-10T01:15:04.963Z,7.68
2022-11-10T01:18:26.471Z,7.71
2022-11-10T01:21:51.193Z,7.76
2022-11-10T01:25:12.496Z,7.72
2022-11-10T01:28:34.398Z,7.75
2022-11-10T01:31:55.628Z,7.80
2022-11-10T01:35:16.808Z,7.78
2022-11-10T01:38:40.585Z,7.80
2022-11-10T01:42:01.695Z,7.80
2022-11-10T01:45:23.229Z,7.86
2022-11-10T01:48:56.771Z,7.88
2022-11-10T01:52:18.153Z,7.88
2022-11-10T01:55:42.575Z,7.89
2022-11-10T01:59:07.770Z,7.85
2022-11-10T02:02:50.050Z,7.94
2022-11-10T02:06:12.013Z,7.90
2022-11-10T02:09:33.976Z,7.93
2022-11-10T02:12:55.629Z,7.99
2022-11-10T02:16:16.995Z,7.94
2022-11-10T02:19:42.401Z,8.00
2022-11-10T02:23:35.916Z,8.08
2022-11-10T02:26:58.103Z,8.02
2022-11-10T02:30:21.919Z,8.09
2022-11-10T02:33:45.645Z,8.10
2022-11-10T02:37:06.603Z,8.02
2022-11-10T02:40:28.070Z,8.04
2022-11-10T02:43:49.352Z,7.97
2022-11-10T02:47:10.747Z,7.98
2022-11-10T02:50:31.864Z,8.03
2022-11-10T02:53:53.254Z,8.08
2022-11-10T02:57:14.617Z,8.12
2022-11-10T03:00:36.387Z,8.10
2022-11-10T03:03:57.582Z,8.13
2022-11-10T03:07:19.061Z,8.12
2022-11-10T03:10:40.200Z,8.22
2022-11-10T03:14:02.664Z,8.28
2022-11-10T03:17:23.893Z,8.29
2022-11-10T03:20:47.919Z,8.37
2022-11-10T03:24:09.114Z,8.37
2022-11-10T03:27:30.676Z,8.32
2022-11-10T03:30:51.984Z,8.33
2022-11-10T03:34:13.347Z,8.33
2022-11-10T03:37:34.495Z,8.24
2022-11-10T03:44:36.704Z,8.38
2022-11-10T03:47:58.201Z,8.41
2022-11-10T03:51:19.254Z,8.37
2022-11-10T03:54:40.891Z,8.32
2022-11-10T03:58:03.523Z,8.36
2022-11-10T04:01:25.135Z,8.39
2022-11-10T04:05:04.921Z,8.36
2022-11-10T04:08:45.092Z,8.35
2022-11-10T04:12:25.308Z,8.32
2022-11-10T04:15:46.568Z,8.22
2022-11-10T04:19:07.767Z,8.10
2022-11-10T04:22:47.825Z,8.14
2022-11-10T04:26:29.453Z,8.17
2022-11-10T04:29:51.097Z,8.18
2022-11-10T04:33:12.268Z,8.28
2022-11-10T04:36:35.255Z,8.28
2022-11-10T04:39:56.403Z,8.32
2022-11-10T04:43:18.344Z,8.25
2022-11-10T04:46:40.647Z,8.22
2022-11-10T04:50:02.195Z,8.21
2022-11-10T04:53:25.664Z,8.32
2022-11-10T04:56:47.022Z,8.29
2022-11-10T05:00:09.203Z,8.29
2022-11-10T05:03:31.302Z,8.23
2022-11-10T05:06:54.190Z,8.16
2022-11-10T05:10:15.737Z,8.15
2022-11-10T05:13:37.259Z,8.24
2022-11-10T05:16:58.505Z,8.21
2022-11-10T05:20:21.625Z,8.29
2022-11-10T05:23:44.357Z,8.32
2022-11-10T05:27:05.704Z,8.41
2022-11-10T05:30:26.953Z,8.34
2022-11-10T05:33:48.455Z,8.36
2022-11-10T05:37:10.046Z,8.35
2022-11-10T05:40:32.043Z,8.39
2022-11-10T05:43:53.739Z,8.46
2022-11-10T05:47:15.182Z,8.46
2022-11-10T05:50:36.545Z,8.48
2022-11-10T05:53:57.495Z,8.52
2022-11-10T05:57:19.012Z,8.49
2022-11-10T06:00:40.154Z,8.50
2022-11-10T06:04:01.666Z,8.48
2022-11-10T06:07:22.885Z,8.52
2022-11-10T06:10:44.983Z,8.52
2022-11-10T06:14:06.226Z,8.56
2022-11-10T06:17:27.975Z,8.62
2022-11-10T06:20:49.136Z,8.59
2022-11-10T06:24:11.570Z,8.61
2022-11-10T06:27:32.578Z,8.68
2022-11-10T06:30:58.307Z,8.62
2022-11-10T06:34:20.234Z,8.69
2022-11-10T06:37:41.702Z,8.64
2022-11-10T06:41:03.143Z,8.57
2022-11-10T06:44:24.637Z,8.69
2022-11-10T06:47:45.965Z,8.60
2022-11-10T06:51:07.723Z,8.73
2022-11-10T06:54:28.796Z,8.67
2022-11-10T06:57:50.407Z,8.72
2022-11-10T07:01:12.120Z,8.76
2022-11-10T07:04:33.792Z,8.84
2022-11-10T07:07:55.013Z,8.82
2022-11-10T07:11:16.710Z,8.86
2022-11-10T07:14:37.739Z,8.92
2022-11-10T07:17:59.351Z,8.97
2022-11-10T07:21:21.007Z,9.04
2022-11-10T07:24:42.592Z,9.01
2022-11-10T07:28:06.141Z,9.06
2022-11-10T07:31:27.579Z,8.96
2022-11-10T07:34:49.002Z,8.99
2022-11-10T07:38:12.576Z,9.09
2022-11-10T07:41:33.789Z,9.02
2022-11-10T07:44:56.027Z,9.13
2022-11-10T07:48:17.766Z,9.24
2022-11-10T07:51:39.129Z,9.25
2022-11-10T07:55:00.264Z,9.29
2022-11-10T07:58:21.980Z,9.20
2022-11-10T08:01:43.214Z,9.29
2022-11-10T08:05:04.977Z,9.31
2022-11-10T08:08:25.887Z,9.33
2022-11-10T08:11:47.579Z,9.46
2022-11-10T08:15:09.400Z,9.46
2022-11-10T08:18:35.061Z,9.44
2022-11-10T08:21:56.831Z,9.42
2022-11-10T08:25:18.308Z,9.45
2022-11-10T08:28:39.586Z,9.56
2022-11-10T08:32:01.097Z,9.58
2022-11-10T08:35:23.963Z,9.65
2022-11-10T08:38:45.429Z,9.69
2022-11-10T08:42:06.676Z,9.81
2022-11-10T08:45:28.792Z,9.87
2022-11-10T08:48:49.670Z,9.97
2022-11-10T08:52:11.532Z,10.00
2022-11-10T08:55:33.399Z,10.11
2022-11-10T08:58:55.136Z,10.05
2022-11-10T09:02:16.623Z,10.14
2022-11-10T09:05:37.962Z,10.20
2022-11-10T09:08:59.039Z,10.23
2022-11-10T09:12:20.569Z,10.21
2022-11-10T09:15:43.393Z,10.26
2022-11-10T09:19:04.970Z,10.33
2022-11-10T09:22:26.272Z,10.26
2022-11-10T09:25:53.280Z,10.33
2022-11-10T09:29:14.356Z,10.33
2022-11-10T09:32:36.031Z,10.38
2022-11-10T09:35:59.937Z,10.40
2022-11-10T09:39:21.335Z,10.49
2022-11-10T09:42:43.181Z,10.51
2022-11-10T09:46:25.532Z,10.53
2022-11-10T09:49:50.547Z,10.60
2022-11-10T09:53:16.491Z,10.67
2022-11-10T09:56:38.327Z,10.62
2022-11-10T09:59:59.798Z,10.65
2022-11-10T10:03:24.974Z,10.70
2022-11-10T10:07:14.069Z,10.67
2022-11-10T10:10:40.483Z,10.82
2022-11-10T10:14:28.117Z,10.85
2022-11-10T10:18:06.612Z,10.86
2022-11-10T10:21:35.736Z,11.06
2022-11-10T10:25:00.068Z,11.16
2022-11-10T10:28:38.126Z,11.22
2022-11-10T10:32:01.394Z,11.23
2022-11-10T10:35:23.111Z,11.35
2022-11-10T10:38:46.893Z,11.36
2022-11-10T10:42:33.387Z,11.40
2022-11-10T10:46:28.370Z,11.46
2022-11-10T10:49:51.836Z,11.44
2022-11-10T10:53:25.810Z,11.44
2022-11-10T10:56:47.417Z,11.35
2022-11-10T11:00:22.617Z,11.39
2022-11-10T11:03:45.625Z,11.31
2022-11-10T11:07:20.934Z,11.35
2022-11-10T11:10:46.070Z,11.42
2022-11-10T11:14:24.694Z,11.51
2022-11-10T11:18:00.942Z,11.61
2022-11-10T11:21:37.406Z,11.58
2022-11-10T11:25:21.419Z,11.60
2022-11-10T11:29:21.077Z,11.71
2022-11-10T11:32:44.911Z,11.69
2022-11-10T11:36:39.732Z,11.60
2022-11-10T11:40:15.321Z,11.56
2022-11-10T11:44:05.543Z,11.62
2022-11-10T11:47:59.509Z,11.76
2022-11-10T11:51:35.001Z,11.88
2022-11-10T11:55:19.849Z,11.87
2022-11-10T11:59:02.784Z,11.89
2022-11-10T12:02:39.219Z,11.95
2022-11-10T12:06:09.072Z,11.94
2022-11-10T12:09:55.209Z,11.91
2022-11-10T12:13:49.835Z,11.94
2022-11-10T12:17:23.060Z,11.94
2022-11-10T12:21:16.106Z,11.97
2022-11-10T12:25:05.929Z,11.99
2022-11-10T12:28:40.917Z,11.84
2022-11-10T12:32:08.124Z,11.98
2022-11-10T12:35:34.738Z,11.91
2022-11-10T12:39:12.923Z,11.97
2022-11-10T12:42:34.616Z,12.05
2022-11-10T12:45:59.123Z,12.05
2022-11-10T12:49:36.415Z,12.23
2022-11-10T12:53:03.223Z,12.25
2022-11-10T12:56:54.774Z,12.31
2022-11-10T13:00:28.966Z,12.44
2022-11-10T13:03:56.413Z,12.40
2022-11-10T13:07:24.643Z,12.23
2022-11-10T13:10:53.174Z,12.17
2022-11-10T13:14:40.406Z,12.17
2022-11-10T13:18:01.682Z,12.01
2022-11-10T13:21:50.857Z,12.09
2022-11-10T13:25:37.786Z,12.08
2022-11-10T13:29:01.122Z,12.05
2022-11-10T13:32:33.032Z,11.90
2022-11-10T13:35:56.807Z,11.88
2022-11-10T13:39:20.918Z,11.90
2022-11-10T13:42:47.066Z,11.94
2022-11-10T13:46:08.881Z,11.88
2022-11-10T13:49:55.121Z,12.04
2022-11-10T13:53:46.476Z,12.00
2022-11-10T13:57:15.277Z,11.87
2022-11-10T14:00:36.659Z,11.89
2022-11-10T14:04:02.655Z,11.98
2022-11-10T14:07:23.978Z,12.08
2022-11-10T14:10:56.714Z,12.14
2022-11-10T14:14:25.503Z,12.04
2022-11-10T14:17:52.729Z,11.98
2022-11-10T14:21:26.723Z,11.94
2022-11-10T14:24:54.372Z,11.86
2022-11-10T14:28:30.065Z,11.71
2022-11-10T14:31:51.495Z,11.74
2022-11-10T14:35:23.927Z,11.64
2022-11-10T14:38:45.504Z,11.57
2022-11-10T14:42:06.935Z,11.55
2022-11-10T14:45:28.902Z,11.45
2022-11-10T14:48:56.589Z,11.53
2022-11-10T14:52:18.860Z,11.42
2022-11-10T14:55:43.934Z,11.40
2022-11-10T14:59:07.788Z,11.35
2022-11-10T15:02:29.297Z,11.22
2022-11-10T15:05:51.094Z,11.10
2022-11-10T15:09:14.964Z,11.08
2022-11-10T15:12:41.769Z,10.99
2022-11-10T15:16:25.816Z,11.01
2022-11-10T15:19:47.291Z,10.98
2022-11-10T15:23:22.915Z,10.89
2022-11-10T15:26:44.889Z,10.92
2022-11-10T15:30:24.709Z,10.96
2022-11-10T15:33:49.889Z,10.82
2022-11-10T15:37:30.439Z,10.67
2022-11-10T15:40:57.842Z,10.69
2022-11-10T15:44:24.692Z,10.69
2022-11-10T15:47:46.422Z,10.67
2022-11-10T15:51:12.759Z,10.68
2022-11-10T15:54:36.209Z,10.67
2022-11-10T15:57:57.654Z,10.65
2022-11-10T16:01:19.204Z,10.67
2022-11-10T16:04:40.836Z,10.65
2022-11-10T16:08:02.729Z,10.56
2022-11-10T16:11:24.317Z,10.65
2022-11-10T16:14:48.823Z,10.72
2022-11-10T16:18:15.490Z,10.68
2022-11-10T16:21:37.030Z,10.67
2022-11-10T16:24:58.379Z,10.58
2022-11-10T16:28:24.050Z,10.52
2022-11-10T16:31:45.797Z,10.47
2022-11-10T16:35:12.973Z,10.43
2022-11-10T16:38:33.996Z,10.45
2022-11-10T16:41:55.663Z,10.45
2022-11-10T16:45:19.468Z,10.40
2022-11-10T16:48:44.819Z,10.36
2022-11-10T16:52:14.825Z,10.26
2022-11-10T16:55:36.494Z,10.21
2022-11-10T16:58:57.733Z,10.22
2022-11-10T17:02:29.579Z,10.15
2022-11-10T17:05:51.472Z,10.11
2022-11-10T17:09:19.511Z,10.04
2022-11-10T17:12:40.566Z,9.96
2022-11-10T17:16:13.293Z,9.92
2022-11-10T17:19:34.434Z,9.89
2022-11-10T17:22:56.893Z,9.78
2022-11-10T17:26:19.417Z,9.78
2022-11-10T17:29:40.687Z,9.66
2022-11-10T17:33:05.072Z,9.65
2022-11-10T17:36:27.488Z,9.57
2022-11-10T17:39:48.448Z,9.42
2022-11-10T17:43:13.931Z,9.38
2022-11-10T17:46:35.174Z,9.30
2022-11-10T17:49:57.066Z,9.18
2022-11-10T17:53:24.455Z,9.03
2022-11-10T17:56:46.643Z,8.93
2022-11-10T18:00:09.133Z,8.85
2022-11-10T18:03:30.489Z,8.77
2022-11-10T18:06:52.184Z,8.61
2022-11-10T18:10:15.049Z,8.66
2022-11-10T18:13:40.112Z,8.61
2022-11-10T18:17:02.471Z,8.53
2022-11-10T18:20:24.247Z,8.50
2022-11-10T18:23:46.390Z,8.43
2022-11-10T18:27:07.690Z,8.40
2022-11-10T18:30:34.887Z,8.26
2022-11-10T18:33:58.635Z,8.10
2022-11-10T18:37:22.169Z,8.07
2022-11-10T18:40:43.101Z,8.02
2022-11-10T18:44:06.540Z,7.98
2022-11-10T18:47:27.897Z,7.94
2022-11-10T18:50:50.307Z,7.91
2022-11-10T18:54:13.307Z,7.87
2022-11-10T18:57:35.312Z,7.80
2022-11-10T19:01:04.825Z,7.74
2022-11-10T19:04:27.563Z,7.67
2022-11-10T19:07:49.728Z,7.63
2022-11-10T19:11:15.434Z,7.60
2022-11-10T19:14:37.646Z,7.47
2022-11-10T19:18:02.807Z,7.41
2022-11-10T19:21:28.785Z,7.34
2022-11-10T19:28:35.704Z,7.06
2022-11-10T19:32:00.312Z,6.90
2022-11-10T19:35:25.171Z,6.84
2022-11-10T19:38:48.054Z,6.88
2022-11-10T19:42:09.360Z,6.84
2022-11-10T19:45:31.477Z,6.91
2022-11-10T19:48:54.868Z,6.86
2022-11-10T19:52:17.098Z,6.83
2022-11-10T19:55:39.697Z,6.78
2022-11-10T19:59:02.697Z,6.69
2022-11-10T20:02:24.330Z,6.62
2022-11-10T20:05:47.105Z,6.42
2022-11-10T20:09:08.332Z,6.42
2022-11-10T20:12:30.708Z,6.37
2022-11-10T20:15:52.170Z,6.34
2022-11-10T20:19:16.299Z,6.29
2022-11-10T20:22:37.971Z,6.17
2022-11-10T20:26:11.784Z,6.10
2022-11-10T20:29:33.269Z,6.02
2022-11-10T20:32:55.279Z,5.92
2022-11-10T20:36:24.375Z,5.82
2022-11-10T20:39:46.118Z,5.83
2022-11-10T20:43:07.857Z,5.84
2022-11-10T20:46:53.375Z,5.81
2022-11-10T20:50:17.284Z,5.78
2022-11-10T20:53:41.518Z,5.78
2022-11-10T20:57:02.730Z,5.76
2022-11-10T21:00:24.488Z,5.71
2022-11-10T21:03:45.909Z,5.63
2022-11-10T21:07:07.919Z,5.62
2022-11-10T21:10:29.318Z,5.54
2022-11-10T21:13:51.426Z,5.62
2022-11-10T21:17:12.851Z,5.67
2022-11-10T21:20:35.360Z,5.60
2022-11-10T21:24:00.149Z,5.59
2022-11-10T21:27:21.519Z,5.61
2022-11-10T21:30:42.808Z,5.67
2022-11-10T21:34:04.746Z,5.68
2022-11-10T21:37:26.225Z,5.62
2022-11-10T21:40:47.680Z,5.57
2022-11-10T21:44:08.939Z,5.48
2022-11-10T21:47:30.389Z,5.48
2022-11-10T21:50:51.576Z,5.56
2022-11-10T21:54:12.969Z,5.51
2022-11-10T21:57:34.267Z,5.50
2022-11-10T22:01:04.389Z,5.45
2022-11-10T22:04:26.232Z,5.36
2022-11-10T22:07:47.658Z,5.38
2022-11-10T22:11:32.428Z,5.41
2022-11-10T22:15:12.587Z,5.40
2022-11-10T22:18:41.492Z,5.46
2022-11-10T22:22:04.116Z,5.38
2022-11-10T22:25:25.688Z,5.44
2022-11-10T22:28:47.235Z,5.49
2022-11-10T22:32:08.694Z,5.50
2022-11-10T22:35:45.291Z,5.44
2022-11-10T22:39:06.632Z,5.49
2022-11-10T22:42:46.387Z,5.53
2022-11-10T22:46:07.548Z,5.49
2022-11-10T22:49:29.273Z,5.50
2022-11-10T22:52:50.611Z,5.46
2022-11-10T22:56:19.882Z,5.48
2022-11-10T22:59:41.942Z,5.49
2022-11-10T23:03:03.765Z,5.44
2022-11-10T23:06:24.820Z,5.46
2022-11-10T23:09:46.245Z,5.36
2022-11-10T23:13:07.576Z,5.42
2022-11-10T23:16:32.963Z,5.43
2022-11-10T23:19:54.022Z,5.42
2022-11-10T23:23:15.737Z,5.38
2022-11-10T23:26:36.985Z,5.47
2022-11-10T23:29:58.337Z,5.51
2022-11-10T23:33:19.688Z,5.45
2022-11-10T23:36:42.233Z,5.46
2022-11-10T23:40:03.601Z,5.44
2022-11-10T23:43:25.937Z,5.55
2022-11-10T23:46:47.748Z,5.49
2022-11-10T23:50:09.850Z,5.61
2022-11-10T23:53:31.414Z,5.60
2022-11-10T23:56:53.272Z,5.58
